Time;durP1;ratioP1;P1;durP2;ratioP2;P2;SDS_P1;SDS_P2;PMS_P1;PMS_P2;Temp;Humidity;BMP_temperature;BMP_pressure;BME280_temperature;BME280_humidity;BME280_pressure;Samples;Min_cycle;Max_cycle;Signal;HPM_P1;HPM_P2
2023/01/07 00:00:45;;;;;;;11.83;7.00;;;;;;;7.25;100.00;102324.25;2105592;28;20163;-62
2023/01/07 00:01:46;;;;;;;11.97;7.83;;;;;;;6.27;100.00;102192.22;2105859;28;20174;-62
2023/01/07 00:02:46;;;;;;;11.07;7.03;;;;;;;7.10;100.00;102318.88;2114033;28;20176;-62
2023/01/07 00:03:48;;;;;;;11.63;6.73;;;;;;;7.14;100.00;102325.25;2105977;28;20178;-62
2023/01/07 00:04:49;;;;;;;10.70;6.65;;;;;;;7.09;100.00;102337.38;2105338;28;20187;-62
2023/01/07 00:05:49;;;;;;;10.10;6.33;;;;;;;7.06;100.00;102340.06;2111541;28;20323;-62
2023/01/07 00:06:51;;;;;;;13.07;6.30;;;;;;;7.06;100.00;102331.78;2109050;28;20195;-62
2023/01/07 00:07:52;;;;;;;10.80;6.88;;;;;;;7.06;100.00;102332.59;2105565;28;20283;-62
2023/01/07 00:08:54;;;;;;;10.47;6.43;;;;;;;6.40;100.00;102227.47;2105538;28;20174;-62
2023/01/07 00:09:54;;;;;;;8.85;6.20;;;;;;;7.04;100.00;102331.38;2105646;28;20173;-62
2023/01/07 00:10:55;;;;;;;10.93;6.23;;;;;;;7.03;100.00;102327.81;2105457;28;20659;-62
2023/01/07 00:11:56;;;;;;;8.75;6.10;;;;;;;7.02;100.00;102320.69;2105080;28;20167;-62
2023/01/07 00:12:56;;;;;;;10.30;6.20;;;;;;;7.03;100.00;102324.28;2105423;28;20198;-62
2023/01/07 00:13:58;;;;;;;10.77;6.30;;;;;;;6.85;100.00;102301.91;2112085;28;20621;-62
2023/01/07 00:14:59;;;;;;;10.68;6.40;;;;;;;6.40;100.00;102232.97;2113642;28;20192;-62
2023/01/07 00:16:01;;;;;;;11.00;6.63;;;;;;;7.01;100.00;102321.88;2113837;28;20660;-62
2023/01/07 00:17:01;;;;;;;10.43;5.90;;;;;;;7.01;100.00;102323.81;2117576;27;20189;-62
2023/01/07 00:18:01;;;;;;;9.80;5.47;;;;;;;7.02;100.00;102322.69;2120145;27;20165;-62
2023/01/07 00:19:04;;;;;;;9.23;6.10;;;;;;;6.47;100.00;102226.81;2114915;28;20704;-62
2023/01/07 00:20:05;;;;;;;8.60;6.10;;;;;;;7.04;100.00;102314.81;2122084;27;20685;-62
2023/01/07 00:21:07;;;;;;;9.37;5.80;;;;;;;7.05;100.00;102322.75;2113671;28;20581;-62
2023/01/07 00:22:08;;;;;;;9.85;5.57;;;;;;;7.06;100.00;102315.25;2121937;27;20189;-62
2023/01/07 00:23:08;;;;;;;10.43;5.53;;;;;;;7.01;100.00;102299.81;2115483;27;20655;-62
2023/01/07 00:24:10;;;;;;;8.17;5.07;;;;;;;6.59;100.00;102240.41;2118943;27;20211;-62
2023/01/07 00:25:10;;;;;;;9.77;5.20;;;;;;;7.08;100.00;102321.97;2114903;28;20201;-62
2023/01/07 00:26:14;;;;;;;7.53;4.90;;;;;;;7.10;100.00;102316.91;2117013;28;20193;-62
2023/01/07 00:27:15;;;;;;;10.25;4.90;;;;;;;6.98;100.00;102303.31;2119709;27;20169;-62
2023/01/07 00:28:15;;;;;;;9.70;4.93;;;;;;;7.08;100.00;102321.22;2115188;28;20175;-62
2023/01/07 00:29:17;;;;;;;7.73;5.13;;;;;;;7.06;100.00;102307.78;2122206;27;20177;-62
2023/01/07 00:30:17;;;;;;;9.52;5.07;;;;;;;7.09;100.00;102320.84;2114137;28;20635;-62
2023/01/07 00:31:23;;;;;;;9.80;5.10;;;;;;;7.03;100.00;102310.50;2121116;27;20537;-62
2023/01/07 00:32:46;;;;;;;10.63;5.55;;;;;;;7.07;100.00;102316.88;2114869;28;20201;-62
2023/01/07 00:34:07;;;;;;;8.70;5.10;;;;;;;7.01;100.00;102313.59;2113696;28;20196;-62
2023/01/07 00:35:20;;;;;;;8.60;5.30;;;;;;;7.02;100.00;102319.94;2104534;28;20665;-62
2023/01/07 00:36:22;;;;;;;11.45;5.15;;;;;;;6.98;100.00;102319.84;2105319;28;20164;-62
2023/01/07 00:38:42;;;;;;;11.27;5.38;;;;;;;6.91;100.00;102316.16;2113974;28;20174;-62
2023/01/07 00:39:42;;;;;;;8.20;5.43;;;;;;;6.73;100.00;102299.34;2113892;28;20162;-62
2023/01/07 00:40:42;;;;;;;9.17;5.30;;;;;;;6.87;100.00;102320.84;2113919;28;20169;-62
2023/01/07 00:43:05;;;;;;;9.60;5.88;;;;;;;6.83;100.00;102315.22;2105381;28;20277;-62
2023/01/07 00:44:07;;;;;;;12.57;7.05;;;;;;;6.65;100.00;102311.38;2105694;28;20236;-62
2023/01/07 00:45:09;;;;;;;10.63;6.22;;;;;;;6.33;100.00;102240.31;2112506;28;20265;-62
2023/01/07 00:46:13;;;;;;;16.13;9.13;;;;;;;6.40;100.00;102263.28;2113136;28;20208;-62
2023/01/07 00:47:13;;;;;;;13.82;9.15;;;;;;;6.72;100.00;102316.22;2107701;28;20182;-62
2023/01/07 00:48:14;;;;;;;14.80;9.17;;;;;;;6.74;100.00;102311.13;2105222;28;20178;-62
2023/01/07 00:49:15;;;;;;;12.77;8.10;;;;;;;6.70;100.00;102322.09;2109285;28;20208;-62
2023/01/07 00:50:15;;;;;;;11.73;8.43;;;;;;;6.68;100.00;102313.41;2113508;28;20955;-62
2023/01/07 00:51:17;;;;;;;14.00;8.87;;;;;;;6.50;100.00;102312.25;2111746;28;20374;-62
2023/01/07 00:52:17;;;;;;;12.73;9.05;;;;;;;6.63;100.00;102315.66;2105424;28;20201;-62
2023/01/07 00:53:19;;;;;;;16.80;10.97;;;;;;;6.61;100.00;102321.53;2105407;28;20178;-62
2023/01/07 00:54:19;;;;;;;19.55;12.50;;;;;;;6.63;100.00;102321.16;2113342;28;20193;-62
2023/01/07 00:55:20;;;;;;;20.73;14.10;;;;;;;6.64;100.00;102322.75;2106763;28;20274;-62
2023/01/07 00:56:21;;;;;;;20.00;14.75;;;;;;;6.10;100.00;102243.00;2105289;28;20190;-62
2023/01/07 00:57:21;;;;;;;20.50;14.03;;;;;;;6.63;100.00;102319.22;2105360;28;20660;-62
2023/01/07 00:58:24;;;;;;;22.40;14.67;;;;;;;6.58;100.00;102325.03;2105321;28;20175;-62
2023/01/07 00:59:25;;;;;;;19.45;14.40;;;;;;;6.61;100.00;102323.50;2105423;28;20179;-62
2023/01/07 01:00:25;;;;;;;15.97;9.90;;;;;;;6.60;100.00;102319.94;2105269;28;20183;-62
2023/01/07 01:01:26;;;;;;;13.33;9.10;;;;;;;6.62;100.00;102320.34;2104730;28;20239;-62
2023/01/07 01:02:26;;;;;;;9.13;6.53;;;;;;;6.62;100.00;102314.84;2105272;28;20194;-62
2023/01/07 01:03:31;;;;;;;9.93;6.83;;;;;;;6.19;100.00;102243.59;2112559;28;20644;-62
2023/01/07 01:04:32;;;;;;;13.05;8.68;;;;;;;6.55;100.00;102305.66;2113682;28;20239;-62
2023/01/07 01:05:32;;;;;;;15.70;9.83;;;;;;;6.58;100.00;102318.69;2115603;28;20317;-62
2023/01/07 01:06:33;;;;;;;17.33;9.27;;;;;;;6.55;100.00;102314.72;2117787;28;20246;-62
2023/01/07 01:07:34;;;;;;;12.73;9.03;;;;;;;6.52;100.00;102312.69;2110597;28;20204;-62
2023/01/07 01:08:34;;;;;;;13.73;9.90;;;;;;;6.50;100.00;102305.94;2105260;28;20178;-62
2023/01/07 01:09:35;;;;;;;17.70;11.00;;;;;;;6.46;100.00;102316.13;2105280;28;20183;-62
2023/01/07 01:10:35;;;;;;;16.40;10.20;;;;;;;6.41;100.00;102306.16;2105377;28;20186;-62
2023/01/07 01:11:36;;;;;;;16.60;10.47;;;;;;;6.39;100.00;102321.47;2104858;28;20209;-62
2023/01/07 01:12:37;;;;;;;13.53;8.73;;;;;;;6.32;100.00;102305.63;2105290;28;20194;-62
2023/01/07 01:13:38;;;;;;;13.95;9.88;;;;;;;6.35;100.00;102320.63;2105003;28;20714;-62
2023/01/07 01:14:38;;;;;;;15.85;9.90;;;;;;;6.32;100.00;102313.06;2105273;28;20297;-62
2023/01/07 01:15:45;;;;;;;14.93;9.70;;;;;;;5.91;100.00;102256.78;2104815;28;20202;-62
2023/01/07 01:16:47;;;;;;;15.65;10.30;;;;;;;6.23;100.00;102312.50;2105176;28;20202;-62
2023/01/07 01:17:49;;;;;;;16.25;10.38;;;;;;;6.20;100.00;102310.47;2096230;28;20175;-62
2023/01/07 01:18:50;;;;;;;18.23;10.55;;;;;;;4.85;100.00;102106.31;2096383;28;20175;-62
2023/01/07 01:19:50;;;;;;;15.50;9.97;;;;;;;6.15;100.00;102310.75;2105372;28;20185;-62
2023/01/07 01:20:51;;;;;;;13.87;9.80;;;;;;;6.13;100.00;102313.06;2105398;28;20235;-62
2023/01/07 01:21:51;;;;;;;14.00;9.97;;;;;;;6.10;100.00;102313.81;2104953;28;20281;-62
2023/01/07 01:22:52;;;;;;;14.80;10.00;;;;;;;6.02;100.00;102301.03;2105135;28;20178;-62
2023/01/07 01:23:52;;;;;;;14.97;10.43;;;;;;;6.07;100.00;102323.56;2105122;28;20664;-62
2023/01/07 01:24:52;;;;;;;15.67;10.47;;;;;;;6.06;100.00;102316.44;2108622;28;20255;-62
2023/01/07 01:26:01;;;;;;;15.17;10.73;;;;;;;6.07;100.00;102326.34;2113455;28;20189;-62
2023/01/07 01:27:01;;;;;;;13.85;10.95;;;;;;;6.02;100.00;102309.28;2111070;28;20678;-62
2023/01/07 01:28:02;;;;;;;14.20;10.13;;;;;;;6.05;100.00;102314.88;2105144;28;20595;-62
2023/01/07 01:29:02;;;;;;;14.67;10.13;;;;;;;5.78;100.00;102273.75;2105293;28;20181;-62
2023/01/07 01:30:04;;;;;;;13.40;9.70;;;;;;;5.98;100.00;102311.97;2105404;28;20184;-62
2023/01/07 01:31:06;;;;;;;15.77;9.52;;;;;;;6.05;100.00;102336.88;2103882;28;20382;-62
2023/01/07 01:32:07;;;;;;;15.80;10.43;;;;;;;6.05;100.00;102322.34;2111659;28;20193;-62
2023/01/07 01:33:07;;;;;;;16.17;11.07;;;;;;;6.07;100.00;102331.03;2113496;28;20199;-62
2023/01/07 01:34:08;;;;;;;17.13;11.17;;;;;;;6.04;100.00;102316.03;2113589;28;20178;-62
2023/01/07 01:35:08;;;;;;;15.23;10.07;;;;;;;5.93;100.00;102298.50;2113267;28;20216;-62
2023/01/07 01:36:11;;;;;;;15.13;9.27;;;;;;;5.45;100.00;102218.41;2114359;28;20173;-62
2023/01/07 01:37:12;;;;;;;16.27;10.30;;;;;;;6.16;100.00;102326.91;2113793;28;20285;-62
2023/01/07 01:38:12;;;;;;;17.47;11.10;;;;;;;6.21;100.00;102320.31;2106586;28;20185;-62
2023/01/07 01:39:13;;;;;;;21.83;11.40;;;;;;;6.07;100.00;102306.25;2115360;28;20644;-62
2023/01/07 01:40:13;;;;;;;15.53;11.10;;;;;;;6.22;100.00;102327.41;2107967;28;20235;-62
2023/01/07 01:41:17;;;;;;;22.13;12.17;;;;;;;6.22;100.00;102322.72;2112334;28;20190;-62
2023/01/07 01:42:23;;;;;;;14.57;10.93;;;;;;;5.90;100.00;102270.91;2109768;28;20189;-62
2023/01/07 01:43:32;;;;;;;16.70;11.75;;;;;;;6.26;100.00;102345.59;2111735;28;20234;-62
2023/01/07 01:44:32;;;;;;;15.73;11.60;;;;;;;6.26;100.00;102325.53;2109999;28;20194;-62
2023/01/07 01:45:33;;;;;;;17.83;11.63;;;;;;;6.25;100.00;102321.19;2106231;28;20728;-62
2023/01/07 01:46:40;;;;;;;15.83;11.63;;;;;;;6.21;100.00;102314.81;2109108;28;20175;-62
2023/01/07 01:48:08;;;;;;;16.02;11.10;;;;;;;6.25;100.00;102329.47;2115020;28;20158;-62
2023/01/07 01:49:18;;;;;;;17.85;10.35;;;;;;;6.27;100.00;102332.63;2113057;28;20713;-62
2023/01/07 01:50:37;;;;;;;14.80;9.27;;;;;;;6.18;100.00;102323.78;2109839;28;20189;-62
2023/01/07 01:51:44;;;;;;;14.40;9.88;;;;;;;5.69;100.00;102256.66;2105971;28;20667;-62
2023/01/07 01:52:51;;;;;;;15.32;10.60;;;;;;;6.19;100.00;102326.19;2112796;28;20629;-62
2023/01/07 01:53:54;;;;;;;16.23;10.68;;;;;;;6.13;100.00;102313.88;2108990;28;20186;-62
2023/01/07 01:54:59;;;;;;;15.27;10.63;;;;;;;6.20;100.00;102327.00;2106446;28;20194;-62
2023/01/07 01:56:08;;;;;;;16.80;10.45;;;;;;;6.21;100.00;102325.81;2111241;28;20178;-62
2023/01/07 01:57:09;;;;;;;16.90;9.95;;;;;;;5.44;100.00;102200.31;2114989;28;20200;-62
2023/01/07 01:58:14;;;;;;;16.40;10.17;;;;;;;6.23;100.00;102326.25;2114851;28;20375;-62
2023/01/07 01:59:19;;;;;;;17.38;11.15;;;;;;;6.24;100.00;102322.34;2114780;28;20186;-62
2023/01/07 02:00:20;;;;;;;15.52;10.35;;;;;;;5.19;100.00;102157.75;2108415;28;20265;-62
2023/01/07 02:01:20;;;;;;;15.33;10.50;;;;;;;6.27;100.00;102327.13;2106061;28;20366;-62
2023/01/07 02:02:47;;;;;;;24.67;13.33;;;;;;;6.27;100.00;102316.13;2110561;28;20681;-62
2023/01/07 02:03:48;;;;;;;21.65;12.40;;;;;;;5.77;100.00;102239.94;2107510;28;20196;-62
2023/01/07 02:04:49;;;;;;;19.17;11.27;;;;;;;6.21;100.00;102303.81;2106443;28;20215;-62
2023/01/07 02:05:50;;;;;;;17.87;10.90;;;;;;;6.38;100.00;102334.44;2109369;27;20668;-62
2023/01/07 02:06:59;;;;;;;16.97;10.20;;;;;;;6.41;100.00;102328.19;2109794;28;20198;-62
2023/01/07 02:07:59;;;;;;;15.60;9.93;;;;;;;6.42;100.00;102331.75;2111414;28;20773;-62
2023/01/07 02:09:00;;;;;;;14.53;9.17;;;;;;;6.43;100.00;102325.91;2108700;28;20542;-62
2023/01/07 02:10:11;;;;;;;14.73;9.20;;;;;;;6.47;100.00;102317.69;2114893;28;20185;-62
2023/01/07 02:11:32;;;;;;;12.65;8.70;;;;;;;6.49;100.00;102324.44;2114380;28;20174;-62
2023/01/07 02:13:09;;;;;;;12.60;9.10;;;;;;;6.15;100.00;102278.50;2088399;28;20203;-62
2023/01/07 02:14:48;;;;;;;14.50;9.23;;;;;;;6.53;100.00;102319.81;2114792;28;20204;-62
2023/01/07 02:15:55;;;;;;;14.23;9.32;;;;;;;6.54;100.00;102323.34;2106182;28;20165;-62
2023/01/07 02:17:09;;;;;;;14.80;9.48;;;;;;;6.52;100.00;102323.69;2106370;28;20648;-62
2023/01/07 02:18:36;;;;;;;15.50;9.05;;;;;;;6.53;100.00;102319.81;2108248;28;20166;-62
2023/01/07 02:20:07;;;;;;;13.48;8.45;;;;;;;6.54;100.00;102320.59;2114866;28;20702;-62
2023/01/07 02:21:34;;;;;;;12.93;8.75;;;;;;;6.49;100.00;102318.94;2106898;28;20201;-62
2023/01/07 02:22:43;;;;;;;13.23;7.80;;;;;;;6.52;100.00;102318.19;2106217;28;20178;-62
2023/01/07 02:23:49;;;;;;;14.43;8.70;;;;;;;6.49;100.00;102323.63;2106656;28;20159;-62
2023/01/07 02:25:14;;;;;;;11.52;8.18;;;;;;;6.45;100.00;102315.31;2114754;28;20177;-62
2023/01/07 02:26:36;;;;;;;12.18;8.82;;;;;;;6.37;100.00;102321.84;2106334;28;20205;-62
2023/01/07 02:28:20;;;;;;;16.17;9.90;;;;;;;6.20;100.00;102325.03;2106150;28;20194;-62
2023/01/07 02:29:53;;;;;;;16.45;9.93;;;;;;;6.18;100.00;102321.84;2106577;28;20631;-62
2023/01/07 02:31:17;;;;;;;15.23;9.30;;;;;;;6.18;100.00;102326.53;2106372;28;20163;-62
2023/01/07 02:32:39;;;;;;;16.23;9.85;;;;;;;6.15;100.00;102328.06;2106343;28;20228;-62
2023/01/07 02:34:08;;;;;;;16.27;10.35;;;;;;;5.74;100.00;102278.41;2112618;28;20189;-62
2023/01/07 02:35:14;;;;;;;13.98;9.70;;;;;;;6.04;100.00;102329.78;2106169;28;20168;-62
2023/01/07 02:36:35;;;;;;;15.65;10.23;;;;;;;5.94;100.00;102329.56;2106416;28;20186;-62
2023/01/07 02:37:53;;;;;;;13.15;9.02;;;;;;;4.94;100.00;102183.84;2107256;28;20644;-62
2023/01/07 02:39:31;;;;;;;15.20;10.10;;;;;;;5.86;100.00;102336.88;2112571;28;20154;-62
2023/01/07 02:40:52;;;;;;;14.35;9.73;;;;;;;5.91;100.00;102344.03;2106199;28;20682;-62
2023/01/07 02:42:07;;;;;;;14.60;9.88;;;;;;;5.15;100.00;102226.38;2105738;28;20197;-62
2023/01/07 02:43:15;;;;;;;15.32;9.88;;;;;;;5.92;100.00;102342.88;2106408;28;20249;-62
2023/01/07 02:44:40;;;;;;;13.60;8.95;;;;;;;5.93;100.00;102338.97;2106527;28;20204;-62
2023/01/07 02:45:52;;;;;;;12.32;8.60;;;;;;;5.96;100.00;102343.75;2107120;28;20156;-62
2023/01/07 02:46:57;;;;;;;13.40;8.90;;;;;;;5.95;100.00;102339.41;2112969;28;20191;-62
2023/01/07 02:48:02;;;;;;;13.38;8.73;;;;;;;5.94;100.00;102333.09;2105344;28;20171;-62
2023/01/07 02:49:12;;;;;;;14.40;9.27;;;;;;;5.94;100.00;102335.84;2108050;28;20163;-62
2023/01/07 02:50:13;;;;;;;13.63;9.05;;;;;;;5.93;100.00;102333.47;2113710;28;20189;-62
2023/01/07 02:51:14;;;;;;;15.10;8.40;;;;;;;5.19;100.00;102229.19;2105651;28;20233;-62
2023/01/07 02:52:27;;;;;;;14.70;8.87;;;;;;;5.82;100.00;102338.75;2106207;28;20179;-62
2023/01/07 02:53:28;;;;;;;15.25;9.50;;;;;;;5.76;100.00;102340.16;2106366;28;20170;-62
2023/01/07 02:54:29;;;;;;;13.43;9.15;;;;;;;5.76;100.00;102340.16;2113823;28;20190;-62
2023/01/07 02:55:53;;;;;;;16.33;9.80;;;;;;;5.75;100.00;102338.53;2107678;28;20193;-62
2023/01/07 02:57:15;;;;;;;13.55;9.18;;;;;;;5.64;100.00;102336.72;2106361;28;20163;-62
2023/01/07 02:58:47;;;;;;;15.43;9.55;;;;;;;5.56;100.00;102343.19;2106897;28;20554;-62
2023/01/07 03:00:30;;;;;;;16.13;10.02;;;;;;;5.55;100.00;102344.34;2110734;28;20197;-62
2023/01/07 03:01:51;;;;;;;16.52;9.35;;;;;;;5.47;100.00;102351.63;2105818;28;20158;-62
2023/01/07 03:03:01;;;;;;;13.40;9.13;;;;;;;5.45;100.00;102353.94;2106544;28;20238;-62
2023/01/07 03:04:19;;;;;;;13.30;9.35;;;;;;;5.49;100.00;102346.56;2113479;28;20176;-62
2023/01/07 03:05:35;;;;;;;13.02;8.85;;;;;;;5.51;100.00;102343.47;2109751;27;20570;-62
2023/01/07 03:06:54;;;;;;;13.90;9.30;;;;;;;5.51;100.00;102343.47;2119839;27;20463;-62
2023/01/07 03:08:11;;;;;;;12.82;9.15;;;;;;;5.57;100.00;102351.09;2119068;27;20206;-62
2023/01/07 03:09:20;;;;;;;11.95;8.27;;;;;;;5.60;100.00;102349.56;2108003;28;20656;-62
2023/01/07 03:10:49;;;;;;;12.73;8.98;;;;;;;5.60;100.00;102353.09;2112147;27;20182;-62
2023/01/07 03:12:09;;;;;;;11.93;7.90;;;;;;;5.65;100.00;102357.56;2089287;28;20195;-62
2023/01/07 03:13:19;;;;;;;10.40;7.70;;;;;;;5.48;100.00;102330.44;2105403;28;20166;-62
2023/01/07 03:14:45;;;;;;;11.98;8.75;;;;;;;5.55;100.00;102364.38;2105890;28;20169;-62
2023/01/07 03:15:54;;;;;;;12.55;7.82;;;;;;;5.56;100.00;102371.50;2108017;28;20560;-62
2023/01/07 03:17:03;;;;;;;12.80;8.07;;;;;;;5.58;100.00;102362.88;2111418;28;20694;-62
2023/01/07 03:18:14;;;;;;;14.57;8.63;;;;;;;5.10;100.00;102289.84;2105908;28;20162;-62
2023/01/07 03:19:19;;;;;;;12.60;7.88;;;;;;;5.63;100.00;102373.59;2106032;28;20183;-62
2023/01/07 03:20:23;;;;;;;11.02;7.90;;;;;;;5.65;100.00;102372.09;2108570;28;20623;-62
2023/01/07 03:21:26;;;;;;;12.80;7.85;;;;;;;5.64;100.00;102373.25;2112092;28;20190;-62
2023/01/07 03:22:30;;;;;;;12.88;7.47;;;;;;;5.63;100.00;102373.59;2106803;28;20182;-62
2023/01/07 03:23:35;;;;;;;12.88;8.18;;;;;;;5.59;100.00;102381.00;2105229;28;20178;-62
2023/01/07 03:24:37;;;;;;;11.52;7.65;;;;;;;5.61;100.00;102373.16;2105701;28;20178;-62
2023/01/07 03:25:48;;;;;;;11.80;8.15;;;;;;;5.63;100.00;102370.84;2105509;28;20267;-62
2023/01/07 03:26:52;;;;;;;12.45;8.48;;;;;;;5.76;100.00;102375.91;2105976;28;20167;-62
2023/01/07 03:27:54;;;;;;;13.07;8.60;;;;;;;5.74;100.00;102372.72;2114285;28;20192;-62
2023/01/07 03:28:58;;;;;;;13.93;8.25;;;;;;;5.52;100.00;102356.84;2107182;28;20208;-62
2023/01/07 03:30:01;;;;;;;13.50;8.25;;;;;;;5.63;100.00;102370.84;2106021;28;20194;-62
2023/01/07 03:31:03;;;;;;;12.82;8.90;;;;;;;5.55;100.00;102366.34;2105471;28;20190;-62
2023/01/07 03:32:29;;;;;;;14.80;9.15;;;;;;;5.65;100.00;102385.84;2105610;28;20187;-62
2023/01/07 03:33:40;;;;;;;15.68;9.30;;;;;;;5.69;100.00;102380.44;2105884;28;20190;-62
2023/01/07 03:34:42;;;;;;;15.13;10.10;;;;;;;5.58;100.00;102373.88;2105971;28;20201;-62
2023/01/07 03:35:46;;;;;;;14.88;9.55;;;;;;;5.62;100.00;102381.06;2111688;28;20677;-62
2023/01/07 03:36:52;;;;;;;14.90;9.05;;;;;;;5.68;100.00;102370.56;2114203;28;20198;-62
2023/01/07 03:37:54;;;;;;;20.48;11.52;;;;;;;5.09;100.00;102281.97;2119428;27;20199;-62
2023/01/07 03:38:55;;;;;;;16.23;10.30;;;;;;;5.74;100.00;102377.44;2118439;27;20193;-62
2023/01/07 03:39:56;;;;;;;15.18;10.48;;;;;;;5.75;100.00;102373.50;2117144;27;20654;-62
2023/01/07 03:40:57;;;;;;;15.03;9.97;;;;;;;5.28;100.00;102302.06;2120725;27;20525;-62
2023/01/07 03:43:18;;;;;;;13.80;9.40;;;;;;;5.81;100.00;102383.13;2120479;27;20165;-62
2023/01/07 03:44:19;;;;;;;12.48;9.13;;;;;;;5.76;100.00;102375.09;2112995;28;20181;-62
2023/01/07 03:45:22;;;;;;;15.93;9.33;;;;;;;5.68;100.00;102363.13;2105198;28;20694;-62
2023/01/07 03:46:22;;;;;;;15.50;9.45;;;;;;;5.77;100.00;102379.44;2105958;28;20170;-62
2023/01/07 03:47:24;;;;;;;15.83;10.10;;;;;;;5.63;100.00;102354.34;2105811;28;20210;-62
2023/01/07 03:48:24;;;;;;;14.80;9.75;;;;;;;5.79;100.00;102380.69;2105741;28;20194;-62
2023/01/07 03:49:25;;;;;;;13.97;9.10;;;;;;;5.76;100.00;102380.59;2111288;28;20669;-62
2023/01/07 03:50:25;;;;;;;15.67;10.13;;;;;;;5.64;100.00;102380.72;2109539;28;20241;-62
2023/01/07 03:51:26;;;;;;;13.83;9.80;;;;;;;5.70;100.00;102382.03;2108453;28;20264;-62
2023/01/07 03:52:26;;;;;;;13.70;9.40;;;;;;;5.22;100.00;102297.19;2113882;28;20250;-62
2023/01/07 03:53:26;;;;;;;14.77;9.80;;;;;;;5.57;100.00;102355.78;2113246;28;20635;-62
2023/01/07 03:54:27;;;;;;;12.67;9.00;;;;;;;5.68;100.00;102387.09;2105829;28;20175;-62
2023/01/07 03:55:27;;;;;;;14.33;9.50;;;;;;;5.69;100.00;102383.19;2105475;28;20186;-62
2023/01/07 03:56:28;;;;;;;13.60;9.57;;;;;;;5.75;100.00;102388.06;2112485;28;20588;-62
2023/01/07 03:57:28;;;;;;;15.10;9.73;;;;;;;5.82;100.00;102393.78;2114205;28;20186;-62
2023/01/07 03:58:29;;;;;;;12.37;9.90;;;;;;;5.88;100.00;102391.53;2114008;28;20648;-62
2023/01/07 03:59:29;;;;;;;16.80;9.60;;;;;;;5.93;100.00;102392.06;2117154;27;20176;-62
2023/01/07 04:00:29;;;;;;;13.87;9.20;;;;;;;5.96;100.00;102394.09;2120314;27;20263;-62
2023/01/07 04:01:30;;;;;;;14.33;9.40;;;;;;;5.92;100.00;102382.22;2114197;28;20230;-62
2023/01/07 04:02:31;;;;;;;13.60;9.30;;;;;;;5.97;100.00;102390.19;2122569;27;20187;-62
2023/01/07 04:03:31;;;;;;;13.87;9.57;;;;;;;6.00;100.00;102388.69;2114502;28;20276;-62
2023/01/07 04:04:32;;;;;;;12.17;8.40;;;;;;;5.96;100.00;102383.09;2114079;28;20184;-62
2023/01/07 04:05:32;;;;;;;14.07;9.70;;;;;;;6.06;100.00;102393.53;2117360;27;20276;-62
2023/01/07 04:06:32;;;;;;;13.07;8.87;;;;;;;6.09;100.00;102401.06;2117863;27;20192;-62
2023/01/07 04:07:33;;;;;;;12.70;9.10;;;;;;;6.08;100.00;102399.47;2114012;28;20190;-62
2023/01/07 04:08:35;;;;;;;13.47;8.90;;;;;;;6.08;100.00;102398.66;2113933;28;20177;-62
2023/01/07 04:09:36;;;;;;;13.65;8.68;;;;;;;6.07;100.00;102400.66;2113917;28;20166;-62
2023/01/07 04:10:36;;;;;;;14.03;9.10;;;;;;;5.95;100.00;102383.44;2114140;28;20215;-62
2023/01/07 04:11:37;;;;;;;11.10;8.30;;;;;;;6.03;100.00;102397.00;2122172;27;20188;-62
2023/01/07 04:12:37;;;;;;;13.03;8.70;;;;;;;5.99;100.00;102396.13;2106018;28;20186;-62
2023/01/07 04:13:38;;;;;;;13.37;9.30;;;;;;;5.85;100.00;102378.50;2104686;28;20222;-62
2023/01/07 04:14:38;;;;;;;12.23;9.03;;;;;;;5.96;100.00;102390.53;2113855;28;20225;-62
2023/01/07 04:15:39;;;;;;;13.13;8.47;;;;;;;5.17;100.00;102280.97;2109724;28;20186;-62
2023/01/07 04:16:40;;;;;;;12.65;9.05;;;;;;;5.84;100.00;102396.94;2108231;28;20169;-62
2023/01/07 04:17:40;;;;;;;13.47;8.63;;;;;;;5.77;100.00;102396.75;2113826;28;20176;-62
2023/01/07 04:18:41;;;;;;;12.47;8.90;;;;;;;5.72;100.00;102398.97;2114171;28;20634;-62
2023/01/07 04:19:41;;;;;;;16.17;8.70;;;;;;;5.31;100.00;102339.84;2122633;27;20218;-62
2023/01/07 04:20:47;;;;;;;15.67;8.73;;;;;;;5.54;100.00;102395.78;2114726;27;20211;-62
2023/01/07 04:21:48;;;;;;;13.70;8.20;;;;;;;5.48;100.00;102397.22;2113565;28;20614;-62
2023/01/07 04:22:48;;;;;;;13.80;9.30;;;;;;;5.38;100.00;102407.97;2113724;28;20184;-62
2023/01/07 04:23:49;;;;;;;11.40;8.33;;;;;;;5.33;100.00;102397.22;2113882;28;20657;-62
2023/01/07 04:24:49;;;;;;;13.83;8.60;;;;;;;5.26;100.00;102408.84;2113530;28;20201;-62
2023/01/07 04:25:50;;;;;;;13.03;8.57;;;;;;;5.21;100.00;102405.53;2113515;28;20174;-62
2023/01/07 04:26:50;;;;;;;14.03;9.43;;;;;;;5.16;100.00;102406.59;2112665;28;20169;-62
2023/01/07 04:27:50;;;;;;;14.60;9.03;;;;;;;5.10;100.00;102396.22;2105716;28;20735;-62
2023/01/07 04:28:51;;;;;;;14.60;8.70;;;;;;;5.10;100.00;102405.28;2105618;28;20250;-62
2023/01/07 04:29:51;;;;;;;11.90;7.63;;;;;;;5.00;100.00;102392.06;2105562;28;20228;-62
2023/01/07 04:30:52;;;;;;;15.47;8.70;;;;;;;5.04;100.00;102403.13;2105501;28;20197;-62
2023/01/07 04:31:52;;;;;;;12.23;8.67;;;;;;;4.95;100.00;102394.25;2109863;28;20189;-62
2023/01/07 04:32:53;;;;;;;15.10;8.37;;;;;;;4.57;100.00;102344.56;2113850;28;20188;-62
2023/01/07 04:33:53;;;;;;;17.90;9.33;;;;;;;4.90;100.00;102405.47;2113736;28;20200;-62
2023/01/07 04:34:53;;;;;;;15.53;9.63;;;;;;;4.88;100.00;102407.78;2113709;28;20180;-62
2023/01/07 04:35:54;;;;;;;17.80;9.30;;;;;;;4.87;100.00;102406.97;2113550;28;20197;-62
2023/01/07 04:36:55;;;;;;;15.30;9.70;;;;;;;4.83;100.00;102416.28;2114105;28;20171;-62
2023/01/07 04:37:55;;;;;;;14.97;9.40;;;;;;;4.29;100.00;102339.06;2113834;28;20214;-62
2023/01/07 04:38:55;;;;;;;14.77;10.10;;;;;;;4.74;100.00;102415.63;2113906;28;20191;-62
2023/01/07 04:39:56;;;;;;;15.33;10.10;;;;;;;4.63;100.00;102411.78;2113846;28;20187;-62
2023/01/07 04:40:56;;;;;;;13.90;9.30;;;;;;;4.65;100.00;102428.72;2113785;28;20188;-62
2023/01/07 04:41:57;;;;;;;14.93;9.43;;;;;;;4.60;100.00;102434.44;2110730;28;20250;-62
2023/01/07 04:42:57;;;;;;;12.90;8.97;;;;;;;4.50;100.00;102427.50;2106657;28;20681;-62
2023/01/07 04:43:58;;;;;;;15.60;9.17;;;;;;;4.52;100.00;102432.66;2113726;28;20172;-62
2023/01/07 04:44:58;;;;;;;16.57;9.73;;;;;;;4.34;100.00;102412.09;2113573;28;20180;-62
2023/01/07 04:45:58;;;;;;;15.63;9.53;;;;;;;4.44;100.00;102436.34;2106496;28;20183;-62
2023/01/07 04:46:59;;;;;;;14.43;9.40;;;;;;;4.40;100.00;102432.66;2111680;28;20312;-62
2023/01/07 04:47:59;;;;;;;16.80;9.43;;;;;;;4.30;100.00;102428.47;2108832;28;20193;-62
2023/01/07 04:49:00;;;;;;;13.47;10.10;;;;;;;4.27;100.00;102431.91;2107036;28;20196;-62
2023/01/07 04:50:00;;;;;;;13.10;9.80;;;;;;;4.02;100.00;102393.88;2110979;28;20180;-62
2023/01/07 04:51:01;;;;;;;14.07;9.60;;;;;;;4.21;100.00;102422.31;2106474;28;20236;-62
2023/01/07 04:52:03;;;;;;;14.67;8.87;;;;;;;4.17;100.00;102426.09;2113153;28;20240;-62
2023/01/07 04:53:03;;;;;;;14.68;9.75;;;;;;;4.15;100.00;102433.91;2105528;28;20265;-62
2023/01/07 04:54:04;;;;;;;12.37;9.10;;;;;;;4.13;100.00;102433.41;2105470;28;20238;-62
2023/01/07 04:55:05;;;;;;;14.43;9.20;;;;;;;4.11;100.00;102431.00;2111731;28;20184;-62
2023/01/07 04:56:06;;;;;;;15.45;9.40;;;;;;;4.10;100.00;102431.38;2113797;28;20187;-62
2023/01/07 04:57:06;;;;;;;14.50;9.40;;;;;;;3.72;100.00;102373.34;2109513;28;20204;-62
2023/01/07 04:58:07;;;;;;;16.40;9.07;;;;;;;4.05;100.00;102435.16;2105261;28;20192;-62
2023/01/07 04:59:07;;;;;;;13.30;8.83;;;;;;;3.54;100.00;102358.28;2107475;28;20695;-62
2023/01/07 05:00:09;;;;;;;12.30;8.73;;;;;;;3.99;100.00;102433.78;2113718;28;20177;-62
2023/01/07 05:01:10;;;;;;;19.50;9.18;;;;;;;3.96;100.00;102436.41;2112435;28;20261;-62
2023/01/07 05:02:10;;;;;;;16.93;9.50;;;;;;;3.87;100.00;102430.25;2105349;28;20183;-62
2023/01/07 05:03:11;;;;;;;18.97;9.03;;;;;;;3.83;100.00;102429.31;2105409;28;20289;-62
2023/01/07 05:04:11;;;;;;;26.37;10.13;;;;;;;3.76;100.00;102435.41;2111092;28;20184;-62